createdAt,value
2023-01-13T00:00:18.967Z,58.88
2023-01-13T00:01:36.215Z,55.28
2023-01-13T00:02:41.592Z,60.17
2023-01-13T00:03:44.973Z,54.40
2023-01-13T00:04:47.872Z,58.90
2023-01-13T00:05:50.696Z,59.47
2023-01-13T00:06:54.561Z,57.33
2023-01-13T00:08:06.641Z,58.00
2023-01-13T00:09:09.775Z,57.70
2023-01-13T00:10:16.003Z,52.78
2023-01-13T00:11:22.641Z,54.88
2023-01-13T00:12:25.570Z,64.57
2023-01-13T00:13:28.467Z,60.78
2023-01-13T00:14:34.658Z,62.55
2023-01-13T00:15:37.631Z,54.55
2023-01-13T00:16:41.041Z,61.05
2023-01-13T00:17:43.779Z,67.68
2023-01-13T00:18:51.801Z,64.47
2023-01-13T00:19:54.441Z,65.25
2023-01-13T00:21:09.054Z,64.05
2023-01-13T00:22:11.619Z,65.80
2023-01-13T00:23:14.220Z,67.85
2023-01-13T00:24:16.941Z,65.30
2023-01-13T00:25:19.828Z,70.72
2023-01-13T00:26:25.260Z,65.30
2023-01-13T00:27:29.660Z,63.72
2023-01-13T00:28:33.069Z,68.90
2023-01-13T00:29:35.924Z,73.43
2023-01-13T00:30:38.789Z,63.55
2023-01-13T00:31:41.518Z,69.38
2023-01-13T00:32:44.352Z,67.75
2023-01-13T00:33:49.411Z,69.15
2023-01-13T00:34:52.259Z,71.13
2023-01-13T00:35:59.726Z,67.85
2023-01-13T00:37:02.721Z,64.88
2023-01-13T00:38:05.336Z,60.83
2023-01-13T00:39:09.224Z,65.63
2023-01-13T00:40:12.696Z,56.67
2023-01-13T00:41:18.537Z,65.75
2023-01-13T00:42:39.991Z,64.18
2023-01-13T00:43:43.475Z,54.22
2023-01-13T00:44:46.332Z,55.53
2023-01-13T00:45:51.752Z,61.50
2023-01-13T00:46:55.617Z,63.22
2023-01-13T00:47:58.334Z,57.55
2023-01-13T00:49:02.283Z,60.72
2023-01-13T00:50:05.337Z,57.45
2023-01-13T00:51:17.567Z,58.15
2023-01-13T00:52:20.427Z,57.70
2023-01-13T00:53:23.308Z,59.92
2023-01-13T00:54:29.099Z,61.05
2023-01-13T00:55:35.329Z,62.97
2023-01-13T00:56:40.775Z,66.95
2023-01-13T00:57:44.042Z,64.05
2023-01-13T00:58:47.885Z,61.78
2023-01-13T00:59:50.742Z,62.45
2023-01-13T01:00:53.714Z,65.00
2023-01-13T01:01:57.221Z,60.42
2023-01-13T01:03:00.137Z,63.33
2023-01-13T01:04:05.708Z,66.57
2023-01-13T01:05:08.806Z,65.85
2023-01-13T01:06:15.196Z,78.35
2023-01-13T01:07:17.780Z,71.90
2023-01-13T01:08:23.573Z,77.68
2023-01-13T01:09:33.048Z,71.20
2023-01-13T01:10:35.841Z,72.70
2023-01-13T01:11:38.671Z,73.88
2023-01-13T01:12:41.362Z,69.85
2023-01-13T01:13:45.324Z,63.45
2023-01-13T01:14:48.089Z,64.47
2023-01-13T01:15:52.986Z,60.08
2023-01-13T01:16:55.957Z,63.50
2023-01-13T01:17:58.718Z,62.00
2023-01-13T01:19:02.437Z,59.63
2023-01-13T01:20:05.569Z,57.65
2023-01-13T01:21:16.327Z,63.10
2023-01-13T01:22:20.736Z,53.33
2023-01-13T01:23:23.403Z,54.85
2023-01-13T01:24:26.277Z,62.17
2023-01-13T01:25:29.068Z,59.85
2023-01-13T01:26:32.511Z,63.78
2023-01-13T01:27:35.451Z,67.60
2023-01-13T01:28:38.183Z,61.83
2023-01-13T01:29:40.926Z,65.10
2023-01-13T01:30:43.655Z,62.20
2023-01-13T01:31:46.696Z,57.45
2023-01-13T01:32:49.544Z,56.40
2023-01-13T01:33:53.644Z,53.20
2023-01-13T01:34:56.315Z,59.78
2023-01-13T01:36:01.617Z,61.72
2023-01-13T01:37:04.285Z,66.03
2023-01-13T01:38:07.003Z,58.25
2023-01-13T01:39:11.027Z,62.97
2023-01-13T01:40:13.921Z,65.22
2023-01-13T01:41:20.057Z,62.20
2023-01-13T01:42:41.633Z,61.35
2023-01-13T01:44:03.081Z,56.38
2023-01-13T01:45:20.432Z,54.42
2023-01-13T01:46:23.402Z,55.00
2023-01-13T01:47:28.433Z,62.75
2023-01-13T01:48:42.842Z,58.72
2023-01-13T01:49:46.763Z,53.67
2023-01-13T01:50:49.597Z,51.03
2023-01-13T01:51:58.834Z,63.63
2023-01-13T01:53:10.149Z,61.25
2023-01-13T01:54:18.947Z,58.58
2023-01-13T01:55:30.322Z,50.63
2023-01-13T01:56:35.108Z,54.22
2023-01-13T01:57:37.899Z,59.13
2023-01-13T01:58:50.254Z,57.78
2023-01-13T01:59:53.973Z,60.47
2023-01-13T02:00:57.475Z,62.50
2023-01-13T02:02:00.619Z,62.15
2023-01-13T02:03:05.374Z,55.78
2023-01-13T02:04:14.191Z,66.60
2023-01-13T02:05:17.778Z,59.72
2023-01-13T02:06:20.506Z,63.03
2023-01-13T02:07:34.798Z,52.05
2023-01-13T02:08:41.829Z,57.85
2023-01-13T02:09:44.850Z,52.25
2023-01-13T02:10:53.490Z,54.25
2023-01-13T02:12:17.292Z,52.88
2023-01-13T02:13:26.408Z,55.83
2023-01-13T02:14:30.667Z,53.10
2023-01-13T02:15:42.718Z,54.83
2023-01-13T02:17:09.224Z,51.72
2023-01-13T02:18:47.044Z,50.17
2023-01-13T02:20:27.745Z,47.42
2023-01-13T02:21:55.822Z,45.88
2023-01-13T02:23:59.200Z,49.58
2023-01-13T02:25:35.798Z,49.88
2023-01-13T02:26:57.617Z,42.33
2023-01-13T02:28:45.480Z,48.22
2023-01-13T02:30:25.671Z,56.38
2023-01-13T02:31:44.391Z,48.40
2023-01-13T02:33:03.377Z,54.05
2023-01-13T02:34:12.366Z,50.42
2023-01-13T02:35:27.879Z,50.45
2023-01-13T02:36:55.355Z,54.78
2023-01-13T02:37:59.995Z,49.75
2023-01-13T02:39:42.057Z,55.70
2023-01-13T02:42:28.934Z,49.05
2023-01-13T02:43:57.669Z,46.00
2023-01-13T02:45:26.227Z,51.30
2023-01-13T02:46:35.184Z,54.10
2023-01-13T02:47:40.556Z,56.05
2023-01-13T02:48:46.230Z,51.75
2023-01-13T02:49:56.121Z,52.17
2023-01-13T02:51:06.208Z,54.13
2023-01-13T02:52:32.775Z,56.25
2023-01-13T02:53:47.345Z,50.95
2023-01-13T02:55:03.749Z,53.00
2023-01-13T02:56:12.138Z,55.15
2023-01-13T02:57:29.243Z,57.78
2023-01-13T02:58:55.466Z,49.83
2023-01-13T03:00:00.159Z,52.88
2023-01-13T03:01:02.739Z,50.55
2023-01-13T03:02:13.720Z,51.72
2023-01-13T03:03:16.740Z,51.38
2023-01-13T03:04:51.208Z,56.55
2023-01-13T03:06:16.685Z,54.50
2023-01-13T03:07:46.794Z,56.45
2023-01-13T03:09:02.451Z,54.28
2023-01-13T03:10:27.488Z,40.38
2023-01-13T03:12:23.329Z,45.35
2023-01-13T03:13:44.067Z,47.13
2023-01-13T03:15:04.676Z,46.40
2023-01-13T03:16:28.253Z,49.70
2023-01-13T03:17:56.148Z,47.83
2023-01-13T03:19:41.655Z,52.10
2023-01-13T03:20:57.147Z,47.08
2023-01-13T03:22:39.809Z,46.88
2023-01-13T03:24:03.630Z,43.85
2023-01-13T03:25:20.832Z,53.28
2023-01-13T03:26:44.979Z,51.83
2023-01-13T03:28:22.765Z,56.97
2023-01-13T03:29:44.975Z,53.28
2023-01-13T03:31:00.788Z,52.05
2023-01-13T03:32:16.321Z,52.85
2023-01-13T03:33:25.881Z,51.03
2023-01-13T03:34:42.188Z,54.42
2023-01-13T03:35:49.672Z,50.78
2023-01-13T03:37:04.676Z,51.50
2023-01-13T03:38:15.965Z,53.50
2023-01-13T03:39:36.356Z,54.70
2023-01-13T03:40:52.557Z,50.83
2023-01-13T03:42:10.730Z,60.80
2023-01-13T03:43:41.127Z,54.00
2023-01-13T03:44:47.414Z,53.55
2023-01-13T03:45:56.146Z,53.40
2023-01-13T03:47:28.328Z,55.58
2023-01-13T03:48:34.919Z,51.55
2023-01-13T03:49:50.120Z,55.95
2023-01-13T03:51:01.891Z,56.53
2023-01-13T03:52:11.913Z,51.88
2023-01-13T03:53:26.561Z,57.63
2023-01-13T03:54:41.621Z,52.22
2023-01-13T03:56:01.782Z,57.17
2023-01-13T03:57:19.886Z,54.97
2023-01-13T03:58:31.444Z,62.92
2023-01-13T03:59:49.670Z,54.70
2023-01-13T04:01:28.867Z,56.63
2023-01-13T04:02:56.540Z,46.80
2023-01-13T04:04:33.355Z,59.88
2023-01-13T04:05:41.823Z,59.90
2023-01-13T04:06:51.046Z,60.05
2023-01-13T04:08:10.307Z,59.35
2023-01-13T04:09:19.449Z,57.00
2023-01-13T04:10:32.870Z,64.40
2023-01-13T04:11:43.040Z,58.47
2023-01-13T04:13:01.358Z,63.85
2023-01-13T04:14:05.156Z,61.70
2023-01-13T04:15:08.238Z,57.08
2023-01-13T04:16:12.427Z,60.33
2023-01-13T04:17:16.156Z,58.35
2023-01-13T04:18:25.414Z,53.80
2023-01-13T04:19:28.330Z,57.78
2023-01-13T04:20:31.217Z,61.50
2023-01-13T04:21:35.045Z,58.05
2023-01-13T04:22:37.465Z,64.15
2023-01-13T04:23:40.044Z,60.75
2023-01-13T04:24:42.480Z,64.93
2023-01-13T04:25:46.407Z,60.20
2023-01-13T04:26:48.792Z,53.53
2023-01-13T04:27:51.323Z,56.38
2023-01-13T04:28:57.172Z,60.47
2023-01-13T04:29:59.607Z,62.35
2023-01-13T04:31:02.518Z,61.10
2023-01-13T04:32:04.946Z,51.65
2023-01-13T04:33:07.658Z,52.85
2023-01-13T04:34:11.193Z,60.33
2023-01-13T04:35:13.745Z,58.08
2023-01-13T04:36:16.373Z,58.95
2023-01-13T04:37:19.073Z,56.33
2023-01-13T04:38:22.959Z,54.00
2023-01-13T04:39:25.385Z,63.60
2023-01-13T04:40:27.935Z,55.72
2023-01-13T04:41:53.067Z,57.92
2023-01-13T04:42:55.622Z,55.60
2023-01-13T04:43:58.095Z,58.80
2023-01-13T04:45:00.633Z,57.38
2023-01-13T04:46:03.340Z,53.20
2023-01-13T04:47:06.100Z,60.20
2023-01-13T04:48:08.998Z,57.88
2023-01-13T04:49:11.542Z,64.53
2023-01-13T04:50:14.939Z,64.85
2023-01-13T04:51:17.349Z,64.63
2023-01-13T04:52:19.787Z,59.65
2023-01-13T04:53:22.183Z,62.58
2023-01-13T04:54:24.684Z,63.92
2023-01-13T04:55:27.488Z,64.32
2023-01-13T04:56:29.997Z,63.88
2023-01-13T04:57:35.077Z,59.13
2023-01-13T04:58:39.206Z,55.33
2023-01-13T04:59:42.335Z,68.50
2023-01-13T05:00:44.774Z,53.63
2023-01-13T05:01:47.379Z,63.50
2023-01-13T05:02:51.288Z,62.95
2023-01-13T05:03:53.701Z,64.30
2023-01-13T05:04:57.119Z,59.75
2023-01-13T05:05:59.617Z,63.63
2023-01-13T05:07:02.137Z,68.57
2023-01-13T05:08:05.748Z,63.80
2023-01-13T05:09:08.445Z,59.08
2023-01-13T05:10:12.001Z,64.47
2023-01-13T05:11:33.446Z,64.50
2023-01-13T05:12:54.666Z,58.47
2023-01-13T05:14:15.912Z,56.90
2023-01-13T05:15:36.930Z,65.93
2023-01-13T05:16:58.691Z,62.85
2023-01-13T05:18:01.939Z,58.67
2023-01-13T05:19:04.375Z,56.70
2023-01-13T05:20:07.430Z,60.80
2023-01-13T05:21:30.459Z,56.25
2023-01-13T05:22:51.728Z,62.10
2023-01-13T05:24:12.987Z,62.83
2023-01-13T05:25:21.671Z,63.00
2023-01-13T05:26:24.570Z,64.68
2023-01-13T05:27:27.680Z,62.85
2023-01-13T05:28:34.461Z,57.58
2023-01-13T05:29:37.540Z,62.13
2023-01-13T05:30:42.757Z,63.88
2023-01-13T05:31:45.197Z,61.90
2023-01-13T05:32:47.932Z,61.10
2023-01-13T05:33:50.566Z,62.22
2023-01-13T05:34:53.097Z,62.03
2023-01-13T05:35:55.632Z,61.03
2023-01-13T05:36:58.302Z,59.65
2023-01-13T05:38:03.505Z,63.80
2023-01-13T05:39:06.069Z,66.82
2023-01-13T05:40:27.769Z,60.40
2023-01-13T05:41:48.871Z,66.10
2023-01-13T05:43:20.124Z,65.55
2023-01-13T05:44:23.919Z,59.97
2023-01-13T05:45:26.564Z,64.65
2023-01-13T05:46:29.430Z,60.45
2023-01-13T05:47:32.654Z,47.38
2023-01-13T05:48:43.111Z,56.13
2023-01-13T05:49:47.727Z,63.38
2023-01-13T05:50:50.629Z,65.80
2023-01-13T05:51:53.298Z,60.10
2023-01-13T05:52:55.770Z,65.80
2023-01-13T05:53:59.549Z,65.47
2023-01-13T05:55:02.346Z,63.65
2023-01-13T05:56:05.906Z,61.65
2023-01-13T05:57:11.525Z,64.78
2023-01-13T05:58:16.418Z,60.20
2023-01-13T05:59:19.268Z,62.22
2023-01-13T06:00:22.900Z,55.60
2023-01-13T06:01:25.639Z,49.13
2023-01-13T06:02:31.246Z,54.33
2023-01-13T06:03:33.918Z,58.47
2023-01-13T06:04:36.468Z,63.17
2023-01-13T06:05:39.439Z,63.85
2023-01-13T06:06:43.656Z,73.50
2023-01-13T06:07:46.513Z,62.88
2023-01-13T06:08:49.818Z,64.18
2023-01-13T06:09:52.714Z,66.60
2023-01-13T06:10:55.373Z,61.22
2023-01-13T06:11:58.050Z,57.50
2023-01-13T06:13:00.893Z,58.75
2023-01-13T06:14:06.012Z,60.42
2023-01-13T06:15:09.024Z,58.53
2023-01-13T06:16:11.741Z,64.88
2023-01-13T06:17:16.279Z,57.08
2023-01-13T06:18:20.165Z,53.45
2023-01-13T06:19:23.143Z,49.75
2023-01-13T06:20:26.017Z,52.88
2023-01-13T06:21:33.238Z,59.08
2023-01-13T06:22:40.158Z,53.50
2023-01-13T06:23:43.000Z,63.70
2023-01-13T06:24:46.655Z,60.20
2023-01-13T06:26:13.911Z,55.40
2023-01-13T06:27:18.788Z,61.35
2023-01-13T06:28:21.204Z,53.42
2023-01-13T06:29:23.732Z,56.35
2023-01-13T06:30:38.691Z,59.58
2023-01-13T06:31:41.454Z,53.60
2023-01-13T06:32:49.527Z,56.40
2023-01-13T06:34:06.157Z,48.03
2023-01-13T06:36:19.631Z,50.90
2023-01-13T06:37:26.315Z,49.50
2023-01-13T06:38:38.679Z,51.78
2023-01-13T06:39:41.640Z,51.20
2023-01-13T06:40:44.295Z,45.72
2023-01-13T06:42:09.045Z,44.15
2023-01-13T06:43:17.874Z,50.15
2023-01-13T06:44:21.987Z,57.55
2023-01-13T06:45:27.202Z,71.18
2023-01-13T06:46:29.813Z,64.25
2023-01-13T06:47:32.535Z,64.45
2023-01-13T06:48:36.165Z,68.95
2023-01-13T06:49:38.693Z,63.00
2023-01-13T06:50:42.515Z,49.63
2023-01-13T06:51:47.822Z,55.13
2023-01-13T06:52:50.462Z,47.70
2023-01-13T06:53:53.123Z,58.40
2023-01-13T06:54:55.742Z,57.30
2023-01-13T06:56:01.182Z,60.83
2023-01-13T06:57:03.788Z,56.05
2023-01-13T06:58:06.712Z,46.42
2023-01-13T06:59:12.476Z,49.03
2023-01-13T07:00:18.051Z,52.28
2023-01-13T07:01:20.781Z,52.58
2023-01-13T07:02:23.663Z,46.10
2023-01-13T07:03:28.761Z,41.55
2023-01-13T07:04:41.888Z,48.25
2023-01-13T07:05:57.289Z,51.53
2023-01-13T07:07:00.371Z,44.45
2023-01-13T07:08:03.370Z,40.22
2023-01-13T07:09:06.888Z,43.92
2023-01-13T07:10:13.348Z,44.40
2023-01-13T07:11:17.034Z,45.35
2023-01-13T07:13:15.305Z,44.13
2023-01-13T07:14:46.028Z,48.95
2023-01-13T07:16:04.630Z,36.10
2023-01-13T07:17:28.240Z,46.67
2023-01-13T07:18:34.806Z,33.90
2023-01-13T07:19:37.747Z,37.85
2023-01-13T07:20:44.917Z,33.30
2023-01-13T07:22:26.620Z,48.92
2023-01-13T07:23:32.756Z,46.63
2023-01-13T07:24:35.571Z,36.80
2023-01-13T07:25:38.681Z,41.25
2023-01-13T07:26:50.241Z,38.65
2023-01-13T07:28:02.587Z,42.85
2023-01-13T07:29:24.520Z,37.40
2023-01-13T07:30:30.075Z,44.25
2023-01-13T07:31:33.463Z,48.33
2023-01-13T07:32:42.634Z,47.38
2023-01-13T07:33:45.549Z,44.05
2023-01-13T07:34:59.263Z,43.05
2023-01-13T07:36:11.069Z,42.47
2023-01-13T07:37:14.094Z,39.85
2023-01-13T07:38:16.950Z,48.28
2023-01-13T07:39:19.566Z,52.08
2023-01-13T07:40:22.272Z,47.35
2023-01-13T07:41:45.749Z,47.58
2023-01-13T07:43:07.727Z,49.50
2023-01-13T07:44:13.287Z,45.13
2023-01-13T07:45:15.883Z,47.47
2023-01-13T07:46:19.063Z,48.05
2023-01-13T07:47:27.603Z,44.17
2023-01-13T07:48:31.549Z,40.97
2023-01-13T07:49:34.418Z,45.53
2023-01-13T07:50:46.569Z,42.72
2023-01-13T07:51:49.289Z,39.95
2023-01-13T07:52:58.232Z,47.05
2023-01-13T07:54:00.897Z,43.40
2023-01-13T07:55:03.882Z,43.88
2023-01-13T07:56:09.717Z,39.47
2023-01-13T07:57:15.298Z,41.65
2023-01-13T07:58:18.416Z,36.10
2023-01-13T07:59:34.444Z,38.88
2023-01-13T08:00:38.473Z,47.05
2023-01-13T08:01:41.315Z,39.22
2023-01-13T08:02:54.508Z,42.80
2023-01-13T08:03:57.872Z,44.55
2023-01-13T08:05:00.928Z,47.05
2023-01-13T08:06:03.696Z,46.17
2023-01-13T08:07:09.991Z,39.55
2023-01-13T08:08:16.436Z,43.85
2023-01-13T08:09:19.817Z,37.22
2023-01-13T08:10:27.275Z,45.15
2023-01-13T08:11:30.414Z,51.60
2023-01-13T08:13:00.514Z,45.20
2023-01-13T08:14:05.130Z,44.97
2023-01-13T08:15:16.436Z,44.53
2023-01-13T08:16:19.202Z,40.42
2023-01-13T08:17:22.288Z,44.95
2023-01-13T08:18:27.783Z,45.08
2023-01-13T08:19:32.993Z,49.30
2023-01-13T08:20:38.352Z,43.50
2023-01-13T08:21:41.325Z,48.92
2023-01-13T08:22:47.649Z,50.13
2023-01-13T08:24:01.402Z,43.72
2023-01-13T08:25:06.819Z,46.20
2023-01-13T08:26:13.108Z,39.45
2023-01-13T08:27:15.955Z,37.72
2023-01-13T08:29:50.442Z,40.92
2023-01-13T08:30:54.613Z,46.22
2023-01-13T08:31:57.665Z,50.08
2023-01-13T08:33:02.741Z,46.17
2023-01-13T08:34:10.516Z,41.38
2023-01-13T08:35:16.003Z,52.13
2023-01-13T08:36:21.114Z,42.85
2023-01-13T08:37:26.632Z,42.70
2023-01-13T08:38:32.595Z,40.33
2023-01-13T08:39:36.363Z,45.95
2023-01-13T08:40:40.942Z,39.17
2023-01-13T08:41:55.867Z,41.75
2023-01-13T08:42:59.358Z,40.22
2023-01-13T08:44:02.020Z,44.83
2023-01-13T08:45:06.525Z,41.95
2023-01-13T08:46:09.705Z,39.20
2023-01-13T08:47:12.570Z,43.22
2023-01-13T08:48:15.149Z,39.78
2023-01-13T08:49:18.683Z,38.85
2023-01-13T08:50:26.642Z,45.47
2023-01-13T08:51:29.715Z,41.17
2023-01-13T08:52:35.479Z,44.10
2023-01-13T08:53:40.806Z,40.95
2023-01-13T08:54:43.598Z,36.47
2023-01-13T08:55:46.873Z,36.58
2023-01-13T08:56:49.689Z,37.72
2023-01-13T08:57:54.451Z,45.53
2023-01-13T08:59:01.820Z,33.88
2023-01-13T09:00:06.722Z,36.10
2023-01-13T09:01:14.150Z,38.13
2023-01-13T09:02:21.712Z,40.28
2023-01-13T09:03:24.535Z,47.20
2023-01-13T09:04:29.285Z,40.13
2023-01-13T09:05:35.288Z,41.85
2023-01-13T09:06:38.893Z,47.22
2023-01-13T09:07:42.756Z,39.97
2023-01-13T09:08:45.929Z,40.78
2023-01-13T09:09:48.628Z,41.03
2023-01-13T09:10:52.024Z,43.38
2023-01-13T09:12:13.705Z,39.45
2023-01-13T09:13:20.527Z,34.15
2023-01-13T09:14:31.897Z,39.65
2023-01-13T09:15:46.081Z,35.88
2023-01-13T09:16:49.034Z,46.13
2023-01-13T09:17:57.721Z,41.63
2023-01-13T09:19:03.382Z,36.58
2023-01-13T09:20:16.553Z,34.55
2023-01-13T09:21:28.583Z,32.95
2023-01-13T09:22:51.924Z,38.67
2023-01-13T09:23:56.593Z,40.50
2023-01-13T09:24:59.467Z,38.47
2023-01-13T09:26:02.115Z,36.28
2023-01-13T09:27:04.907Z,37.53
2023-01-13T09:28:10.954Z,34.13
2023-01-13T09:29:17.971Z,37.00
2023-01-13T09:30:20.969Z,42.53
2023-01-13T09:31:23.774Z,41.65
2023-01-13T09:32:26.855Z,44.45
2023-01-13T09:33:55.446Z,39.03
2023-01-13T09:35:00.570Z,45.17
2023-01-13T09:36:06.410Z,36.13
2023-01-13T09:37:09.605Z,38.13
2023-01-13T09:38:12.497Z,38.95
2023-01-13T09:39:15.787Z,36.60
2023-01-13T09:40:22.898Z,36.95
2023-01-13T09:41:47.854Z,33.92
2023-01-13T09:43:18.998Z,31.70
2023-01-13T09:44:29.874Z,33.60
2023-01-13T09:45:42.834Z,39.88
2023-01-13T09:47:03.250Z,32.22
2023-01-13T09:48:22.454Z,27.33
2023-01-13T09:49:54.397Z,34.10
2023-01-13T09:51:09.930Z,28.83
2023-01-13T09:52:26.920Z,33.10
2023-01-13T09:53:45.379Z,33.53
2023-01-13T09:54:54.739Z,31.95
2023-01-13T09:55:59.414Z,35.72
2023-01-13T09:57:02.064Z,36.72
2023-01-13T09:58:14.182Z,34.67
2023-01-13T09:59:20.380Z,36.20
2023-01-13T10:00:35.803Z,33.55
2023-01-13T10:02:17.477Z,31.67
2023-01-13T10:03:26.957Z,31.98
2023-01-13T10:04:29.948Z,38.35
2023-01-13T10:05:41.606Z,29.25
2023-01-13T10:06:53.202Z,30.05
2023-01-13T10:08:49.524Z,22.45
2023-01-13T10:09:58.875Z,29.17
2023-01-13T10:11:24.149Z,30.15
2023-01-13T10:13:06.387Z,24.95
2023-01-13T10:14:20.825Z,30.77
2023-01-13T10:15:26.897Z,30.95
2023-01-13T10:16:43.212Z,33.15
2023-01-13T10:17:58.763Z,31.83
2023-01-13T10:19:47.601Z,30.65
2023-01-13T10:21:06.903Z,32.25
2023-01-13T10:22:47.048Z,28.65
2023-01-13T10:24:19.062Z,28.17
2023-01-13T10:25:25.123Z,37.92
2023-01-13T10:26:34.570Z,29.85
2023-01-13T10:28:52.092Z,33.38
2023-01-13T10:29:54.796Z,27.60
2023-01-13T10:30:59.963Z,28.88
2023-01-13T10:32:05.489Z,31.27
2023-01-13T10:33:15.290Z,26.60
2023-01-13T10:34:19.566Z,29.73
2023-01-13T10:35:59.952Z,31.58
2023-01-13T10:37:06.768Z,28.58
2023-01-13T10:38:17.358Z,38.50
2023-01-13T10:39:21.523Z,34.70
2023-01-13T10:40:24.251Z,35.45
2023-01-13T10:41:28.542Z,32.17
2023-01-13T10:43:36.769Z,28.73
2023-01-13T10:45:03.901Z,29.58
2023-01-13T10:46:18.409Z,31.75
2023-01-13T10:47:27.300Z,44.33
2023-01-13T10:48:38.722Z,38.08
2023-01-13T10:50:51.489Z,34.55
2023-01-13T10:51:54.440Z,34.03
2023-01-13T10:53:32.047Z,31.20
2023-01-13T10:54:50.345Z,27.33
2023-01-13T10:56:43.600Z,23.73
2023-01-13T10:57:49.609Z,24.45
2023-01-13T10:59:26.213Z,27.58
2023-01-13T11:00:35.279Z,30.55
2023-01-13T11:02:25.648Z,31.20
2023-01-13T11:04:04.619Z,26.17
2023-01-13T11:05:25.409Z,26.58
2023-01-13T11:06:33.506Z,29.65
2023-01-13T11:07:52.935Z,31.58
2023-01-13T11:09:26.980Z,30.55
2023-01-13T11:10:32.958Z,29.15
2023-01-13T11:11:35.613Z,28.65
2023-01-13T11:12:59.345Z,29.48
2023-01-13T11:14:29.664Z,31.10
2023-01-13T11:16:53.114Z,29.77
2023-01-13T11:18:05.378Z,28.40
2023-01-13T11:19:17.231Z,30.88
2023-01-13T11:20:29.990Z,27.83
2023-01-13T11:21:41.915Z,29.98
2023-01-13T11:22:51.657Z,29.67
2023-01-13T11:24:21.037Z,33.95
2023-01-13T11:27:15.167Z,27.58
2023-01-13T11:32:34.625Z,31.77
2023-01-13T11:33:45.701Z,29.65
2023-01-13T11:35:17.884Z,31.42
2023-01-13T11:36:48.125Z,29.95
2023-01-13T11:38:04.939Z,29.80
2023-01-13T11:39:21.523Z,29.75
2023-01-13T11:40:37.870Z,30.63
2023-01-13T11:41:45.792Z,33.28
2023-01-13T11:43:18.432Z,30.38
2023-01-13T11:44:50.917Z,30.25
2023-01-13T11:46:01.300Z,34.38
2023-01-13T11:47:04.111Z,33.15
2023-01-13T11:48:12.854Z,32.90
2023-01-13T11:49:28.715Z,31.23
2023-01-13T11:50:42.654Z,33.47
2023-01-13T11:51:53.389Z,29.52
2023-01-13T11:53:31.073Z,27.98
2023-01-13T11:54:48.848Z,28.38
2023-01-13T11:56:13.363Z,29.90
2023-01-13T11:57:43.556Z,28.77
2023-01-13T11:59:00.525Z,30.48
2023-01-13T12:00:28.598Z,31.67
2023-01-13T12:01:44.941Z,28.05
2023-01-13T12:03:14.969Z,29.48
2023-01-13T12:04:23.130Z,29.23
2023-01-13T12:05:39.897Z,26.83
2023-01-13T12:06:43.718Z,33.42
2023-01-13T12:08:03.595Z,28.38
2023-01-13T12:09:24.244Z,33.58
2023-01-13T12:10:35.564Z,29.85
2023-01-13T12:12:16.764Z,29.08
2023-01-13T12:13:28.495Z,32.90
2023-01-13T12:14:50.611Z,29.92
2023-01-13T12:16:11.890Z,31.33
2023-01-13T12:17:41.415Z,29.33
2023-01-13T12:19:07.855Z,30.60
2023-01-13T12:20:33.112Z,30.98
2023-01-13T12:21:56.571Z,28.60
2023-01-13T12:23:04.539Z,27.98
2023-01-13T12:24:29.774Z,31.98
2023-01-13T12:25:47.487Z,30.20
2023-01-13T12:26:56.753Z,27.95
2023-01-13T12:28:20.412Z,27.58
2023-01-13T12:29:31.077Z,26.25
2023-01-13T12:30:45.393Z,31.05
2023-01-13T12:31:50.664Z,34.17
2023-01-13T12:32:58.588Z,28.85
2023-01-13T12:34:13.198Z,31.67
2023-01-13T12:35:34.562Z,28.40
2023-01-13T12:36:42.692Z,29.50
2023-01-13T12:38:16.434Z,30.42
2023-01-13T12:39:49.030Z,29.52
2023-01-13T12:41:08.630Z,26.27
2023-01-13T12:42:39.379Z,27.30
2023-01-13T12:44:05.052Z,41.55
2023-01-13T12:45:10.263Z,37.80
2023-01-13T12:46:21.940Z,40.80
2023-01-13T12:47:37.426Z,40.53
2023-01-13T12:48:59.834Z,44.00
2023-01-13T12:50:36.511Z,36.67
2023-01-13T12:52:09.599Z,40.58
2023-01-13T12:53:37.053Z,43.60
2023-01-13T12:54:57.552Z,38.00
2023-01-13T12:56:25.277Z,42.22
2023-01-13T12:57:36.869Z,40.78
2023-01-13T12:58:46.208Z,35.35
2023-01-13T13:00:18.820Z,40.22
2023-01-13T13:01:38.030Z,35.88
2023-01-13T13:03:18.558Z,43.47
2023-01-13T13:04:52.225Z,36.65
2023-01-13T13:06:13.268Z,34.15
2023-01-13T13:08:01.456Z,34.17
2023-01-13T13:09:29.394Z,44.50
2023-01-13T13:10:37.643Z,36.63
2023-01-13T13:12:03.821Z,38.95
2023-01-13T13:13:20.376Z,41.22
2023-01-13T13:14:38.159Z,46.15
2023-01-13T13:15:41.458Z,42.28
2023-01-13T13:16:52.147Z,49.90
2023-01-13T13:18:07.360Z,51.90
2023-01-13T13:19:40.242Z,46.17
2023-01-13T13:21:04.717Z,49.92
2023-01-13T13:22:13.556Z,44.95
2023-01-13T13:23:40.573Z,50.80
2023-01-13T13:24:58.044Z,48.08
2023-01-13T13:26:27.021Z,53.08
2023-01-13T13:27:59.802Z,48.70
2023-01-13T13:29:21.141Z,35.53
2023-01-13T13:30:45.342Z,34.50
2023-01-13T13:32:03.185Z,26.45
2023-01-13T13:33:54.561Z,24.15
2023-01-13T13:35:07.551Z,29.10
2023-01-13T13:37:02.456Z,27.02
2023-01-13T13:38:46.067Z,28.20
2023-01-13T13:40:16.212Z,29.27
2023-01-13T13:41:42.304Z,27.80
2023-01-13T13:43:18.005Z,25.27
2023-01-13T13:45:04.760Z,25.50
2023-01-13T13:46:47.807Z,22.60
2023-01-13T13:47:51.748Z,22.35
2023-01-13T13:48:55.916Z,21.65
2023-01-13T13:50:12.880Z,22.67
2023-01-13T13:51:38.480Z,23.13
2023-01-13T13:52:51.590Z,28.65
2023-01-13T13:53:59.549Z,29.98
2023-01-13T13:55:18.927Z,42.90
2023-01-13T13:56:28.059Z,36.45
2023-01-13T13:57:33.373Z,36.13
2023-01-13T13:58:37.508Z,32.95
2023-01-13T13:59:40.415Z,29.95
2023-01-13T14:00:48.669Z,28.17
2023-01-13T14:02:05.900Z,28.55
2023-01-13T14:03:25.163Z,26.40
2023-01-13T14:04:36.368Z,26.08
2023-01-13T14:05:38.938Z,25.70
2023-01-13T14:06:54.794Z,23.70
2023-01-13T14:08:03.495Z,24.52
2023-01-13T14:09:17.357Z,24.08
2023-01-13T14:10:25.454Z,22.40
2023-01-13T14:11:34.265Z,22.90
2023-01-13T14:12:38.840Z,26.38
2023-01-13T14:13:41.425Z,26.40
2023-01-13T14:14:45.991Z,27.25
2023-01-13T14:16:03.517Z,30.05
2023-01-13T14:17:07.542Z,23.70
2023-01-13T14:18:19.079Z,24.80
2023-01-13T14:19:40.683Z,27.45
2023-01-13T14:20:43.701Z,25.67
2023-01-13T14:21:48.414Z,27.20
2023-01-13T14:22:54.253Z,27.38
2023-01-13T14:24:10.859Z,33.63
2023-01-13T14:26:00.994Z,31.02
2023-01-13T14:27:17.533Z,26.95
2023-01-13T14:28:32.595Z,23.85
2023-01-13T14:29:35.495Z,29.20
2023-01-13T14:30:38.301Z,34.15
2023-01-13T14:31:45.393Z,30.20
2023-01-13T14:32:48.586Z,27.55
2023-01-13T14:33:55.065Z,29.50
2023-01-13T14:34:57.718Z,27.17
2023-01-13T14:36:22.372Z,25.35
2023-01-13T14:37:36.986Z,30.60
2023-01-13T14:38:41.098Z,26.73
2023-01-13T14:39:43.563Z,32.78
2023-01-13T14:40:47.150Z,24.88
2023-01-13T14:41:50.915Z,23.83
2023-01-13T14:43:00.994Z,25.80
2023-01-13T14:44:28.099Z,28.33
2023-01-13T14:45:33.336Z,27.92
2023-01-13T14:46:46.660Z,23.48
2023-01-13T14:47:53.364Z,23.05
2023-01-13T14:49:02.215Z,24.65
2023-01-13T14:50:11.093Z,23.67
2023-01-13T14:51:22.628Z,23.25
2023-01-13T14:52:28.350Z,24.52
2023-01-13T14:53:46.450Z,26.63
2023-01-13T14:54:49.205Z,28.77
2023-01-13T14:55:53.125Z,25.80
2023-01-13T14:57:27.900Z,26.30
2023-01-13T14:58:30.543Z,29.85
2023-01-13T14:59:36.576Z,28.30
2023-01-13T15:00:40.040Z,30.20
2023-01-13T15:01:43.054Z,28.38
2023-01-13T15:02:53.657Z,26.08
2023-01-13T15:04:18.735Z,24.83
2023-01-13T15:05:50.626Z,25.75
2023-01-13T15:06:57.562Z,23.67
2023-01-13T15:08:06.307Z,20.95
2023-01-13T15:09:13.516Z,22.38
2023-01-13T15:10:29.765Z,27.60
2023-01-13T15:11:32.533Z,24.80
2023-01-13T15:12:41.812Z,26.45
2023-01-13T15:13:53.123Z,23.95
2023-01-13T15:15:02.251Z,24.90
2023-01-13T15:16:08.371Z,32.08
2023-01-13T15:17:17.734Z,28.95
2023-01-13T15:18:20.631Z,29.30
2023-01-13T15:19:24.025Z,26.50
2023-01-13T15:20:30.721Z,24.92
2023-01-13T15:21:34.552Z,24.45
2023-01-13T15:22:40.694Z,24.63
2023-01-13T15:23:48.872Z,22.75
2023-01-13T15:24:58.915Z,21.40
2023-01-13T15:26:22.041Z,26.02
2023-01-13T15:27:26.649Z,22.17
2023-01-13T15:28:32.566Z,21.73
2023-01-13T15:29:38.464Z,24.85
2023-01-13T15:30:41.423Z,25.23
2023-01-13T15:31:44.298Z,23.73
2023-01-13T15:32:47.485Z,22.58
2023-01-13T15:33:53.329Z,26.58